createdAt,value
2018-06-11T00:00:11.181Z,30.50
2018-06-11T00:01:11.094Z,33.70
2018-06-11T00:02:11.005Z,32.10
2018-06-11T00:03:10.915Z,29.50
2018-06-11T00:04:10.856Z,33.30
2018-06-11T00:05:10.738Z,33.50
2018-06-11T00:06:10.648Z,37.00
2018-06-11T00:07:10.561Z,37.10
2018-06-11T00:08:10.474Z,35.20
2018-06-11T00:09:10.508Z,36.00
2018-06-11T00:10:10.298Z,37.00
2018-06-11T00:11:10.211Z,35.40
2018-06-11T00:12:10.120Z,38.00
2018-06-11T00:13:10.029Z,37.50
2018-06-11T00:14:09.974Z,34.60
2018-06-11T00:15:09.857Z,35.70
2018-06-11T00:16:09.765Z,37.30
2018-06-11T00:17:09.677Z,36.40
2018-06-11T00:18:09.589Z,38.00
2018-06-11T00:19:09.533Z,36.30
2018-06-11T00:20:09.428Z,34.40
2018-06-11T00:21:09.324Z,35.50
2018-06-11T00:22:09.235Z,34.30
2018-06-11T00:23:09.240Z,33.80
2018-06-11T00:24:09.089Z,32.80
2018-06-11T00:25:08.970Z,33.60
2018-06-11T00:26:08.882Z,32.40
2018-06-11T00:27:08.792Z,31.60
2018-06-11T00:28:08.705Z,33.80
2018-06-11T00:29:08.650Z,32.60
2018-06-11T00:30:08.530Z,29.30
2018-06-11T00:31:08.441Z,31.50
2018-06-11T00:32:08.354Z,33.10
2018-06-11T00:33:08.264Z,32.20
2018-06-11T00:34:08.206Z,34.90
2018-06-11T00:35:08.088Z,34.20
2018-06-11T00:36:07.996Z,38.20
2018-06-11T00:37:08.004Z,40.20
2018-06-11T00:38:07.822Z,37.50
2018-06-11T00:39:07.737Z,38.70
2018-06-11T00:40:07.678Z,33.10
2018-06-11T00:41:07.564Z,34.30
2018-06-11T00:42:07.467Z,33.50
2018-06-11T00:43:07.377Z,38.50
2018-06-11T00:44:07.389Z,36.40
2018-06-11T00:45:07.233Z,37.00
2018-06-11T00:46:07.115Z,33.70
2018-06-11T00:47:07.027Z,34.10
2018-06-11T00:48:06.938Z,42.50
2018-06-11T00:49:06.851Z,39.20
2018-06-11T00:50:06.790Z,46.40
2018-06-11T00:51:06.763Z,47.00
2018-06-11T00:52:06.583Z,47.20
2018-06-11T00:53:06.496Z,44.30
2018-06-11T00:54:06.410Z,42.00
2018-06-11T00:55:06.348Z,38.90
2018-06-11T00:56:06.229Z,36.30
2018-06-11T00:57:06.140Z,43.60
2018-06-11T00:58:06.148Z,37.30
2018-06-11T00:59:05.964Z,28.60
2018-06-11T01:00:05.912Z,36.40
2018-06-11T01:01:05.784Z,47.10
2018-06-11T01:02:05.710Z,47.90
2018-06-11T01:03:05.610Z,50.60
2018-06-11T01:04:05.521Z,50.40
2018-06-11T01:05:05.558Z,46.70
2018-06-11T01:06:05.358Z,45.80
2018-06-11T01:07:05.256Z,47.80
2018-06-11T01:08:05.167Z,48.00
2018-06-11T01:09:05.079Z,37.20
2018-06-11T01:10:05.022Z,40.00
2018-06-11T01:11:04.901Z,44.90
2018-06-11T01:12:04.911Z,45.50
2018-06-11T01:13:04.723Z,47.30
2018-06-11T01:14:04.649Z,46.80
2018-06-11T01:15:04.584Z,46.70
2018-06-11T01:16:04.459Z,45.50
2018-06-11T01:17:04.369Z,46.00
2018-06-11T01:18:04.281Z,49.00
2018-06-11T01:19:04.287Z,50.30
2018-06-11T01:20:04.140Z,48.90
2018-06-11T01:21:04.017Z,51.40
2018-06-11T01:22:03.930Z,49.00
2018-06-11T01:23:03.842Z,46.70
2018-06-11T01:24:03.753Z,45.80
2018-06-11T01:25:03.692Z,42.60
2018-06-11T01:26:03.666Z,50.10
2018-06-11T01:27:03.490Z,51.70
2018-06-11T01:28:03.397Z,43.40
2018-06-11T01:29:03.306Z,32.60
2018-06-11T01:30:03.253Z,33.90
2018-06-11T01:31:03.133Z,35.50
2018-06-11T01:32:03.043Z,47.60
2018-06-11T01:33:03.050Z,53.20
2018-06-11T01:34:02.866Z,49.20
2018-06-11T01:35:02.809Z,53.10
2018-06-11T01:36:02.687Z,57.00
2018-06-11T01:37:02.598Z,57.80
2018-06-11T01:38:02.511Z,61.20
2018-06-11T01:39:02.428Z,60.70
2018-06-11T01:40:02.454Z,39.30
2018-06-11T01:41:02.245Z,49.60
2018-06-11T01:42:02.160Z,39.60
2018-06-11T01:43:02.068Z,64.80
2018-06-11T01:44:01.978Z,44.40
2018-06-11T01:45:01.921Z,44.70
2018-06-11T01:46:01.888Z,54.90
2018-06-11T01:47:01.720Z,59.50
2018-06-11T01:48:01.623Z,56.60
2018-06-11T01:49:01.534Z,63.20
2018-06-11T01:50:01.482Z,60.40
2018-06-11T01:51:01.358Z,65.40
2018-06-11T01:52:01.269Z,76.50
2018-06-11T01:53:01.178Z,58.60
2018-06-11T01:54:01.091Z,58.10
2018-06-11T01:55:01.035Z,63.60
2018-06-11T01:56:00.915Z,64.90
2018-06-11T01:57:00.825Z,59.00
2018-06-11T01:58:00.736Z,62.10
2018-06-11T01:59:00.650Z,53.50
2018-06-11T02:00:00.593Z,47.50
2018-06-11T02:01:00.562Z,48.40
2018-06-11T02:02:00.381Z,47.10
2018-06-11T02:03:00.290Z,47.30
2018-06-11T02:04:00.205Z,51.40
2018-06-11T02:05:00.161Z,53.90
2018-06-11T02:06:00.027Z,48.50
2018-06-11T02:06:59.937Z,50.50
2018-06-11T02:07:59.846Z,49.10
2018-06-11T02:08:59.761Z,49.50
2018-06-11T02:09:59.671Z,52.50
2018-06-11T02:10:59.618Z,54.70
2018-06-11T02:11:59.491Z,55.50
2018-06-11T02:12:59.403Z,55.80
2018-06-11T02:13:59.334Z,56.20
2018-06-11T02:14:59.227Z,62.40
2018-06-11T02:15:59.196Z,65.70
2018-06-11T02:16:59.048Z,64.10
2018-06-11T02:17:58.959Z,66.30
2018-06-11T02:18:58.871Z,61.20
2018-06-11T02:19:58.782Z,72.40
2018-06-11T02:20:58.722Z,55.50
2018-06-11T02:21:58.619Z,60.60
2018-06-11T02:22:58.514Z,72.40
2018-06-11T02:23:58.427Z,72.30
2018-06-11T02:24:58.338Z,66.40
2018-06-11T02:25:58.278Z,81.80
2018-06-11T02:26:58.161Z,128.60
2018-06-11T02:27:58.068Z,105.50
2018-06-11T02:28:57.979Z,110.40
2018-06-11T02:29:57.891Z,126.80
2018-06-11T02:30:57.833Z,128.40
2018-06-11T02:31:57.714Z,90.60
2018-06-11T02:32:57.626Z,76.40
2018-06-11T02:33:57.535Z,68.00
2018-06-11T02:34:57.452Z,65.90
2018-06-11T02:35:57.388Z,73.20
2018-06-11T02:36:57.267Z,79.80
2018-06-11T02:37:57.179Z,84.60
2018-06-11T02:38:57.095Z,99.70
2018-06-11T02:39:56.999Z,105.90
2018-06-11T02:40:56.939Z,129.20
2018-06-11T02:41:56.822Z,106.60
2018-06-11T02:42:56.734Z,171.30
2018-06-11T02:43:56.647Z,192.00
2018-06-11T02:44:56.555Z,133.00
2018-06-11T02:45:56.497Z,79.90
2018-06-11T02:46:56.377Z,83.20
2018-06-11T02:47:56.293Z,136.90
2018-06-11T02:48:56.199Z,145.40
2018-06-11T02:49:56.113Z,117.10
2018-06-11T02:50:56.056Z,132.00
2018-06-11T02:51:55.932Z,138.30
2018-06-11T02:52:55.846Z,121.80
2018-06-11T02:53:55.755Z,168.20
2018-06-11T02:54:55.669Z,145.40
2018-06-11T02:55:55.610Z,182.30
2018-06-11T02:56:55.488Z,133.10
2018-06-11T02:57:55.398Z,155.20
2018-06-11T02:58:55.312Z,154.70
2018-06-11T02:59:55.224Z,171.90
2018-06-11T03:00:55.163Z,132.90
2018-06-11T03:01:55.045Z,99.90
2018-06-11T03:02:54.956Z,91.90
2018-06-11T03:03:54.871Z,86.30
2018-06-11T03:04:54.777Z,80.30
2018-06-11T03:05:54.720Z,74.60
2018-06-11T03:06:54.600Z,84.80
2018-06-11T03:07:54.508Z,78.80
2018-06-11T03:08:54.421Z,71.60
2018-06-11T03:09:54.335Z,68.40
2018-06-11T03:10:54.282Z,70.90
2018-06-11T03:11:54.158Z,68.80
2018-06-11T03:12:54.068Z,73.50
2018-06-11T03:13:53.978Z,65.30
2018-06-11T03:14:53.889Z,70.90
2018-06-11T03:15:53.829Z,68.50
2018-06-11T03:16:53.809Z,66.00
2018-06-11T03:17:53.623Z,61.80
2018-06-11T03:18:53.533Z,63.10
2018-06-11T03:19:53.444Z,66.00
2018-06-11T03:20:53.385Z,65.20
2018-06-11T03:21:53.267Z,61.00
2018-06-11T03:22:53.177Z,56.60
2018-06-11T03:23:53.180Z,56.30
2018-06-11T03:24:53.000Z,62.90
2018-06-11T03:25:52.943Z,59.20
2018-06-11T03:26:52.822Z,61.10
2018-06-11T03:27:52.734Z,62.90
2018-06-11T03:28:52.644Z,58.20
2018-06-11T03:29:52.555Z,60.10
2018-06-11T03:30:52.604Z,62.20
2018-06-11T03:31:52.375Z,60.80
2018-06-11T03:32:52.286Z,60.40
2018-06-11T03:33:52.203Z,58.60
2018-06-11T03:34:52.111Z,57.10
2018-06-11T03:35:52.054Z,57.30
2018-06-11T03:36:51.935Z,48.70
2018-06-11T03:37:51.945Z,45.30
2018-06-11T03:38:51.757Z,44.30
2018-06-11T03:39:51.668Z,48.30
2018-06-11T03:40:51.582Z,48.50
2018-06-11T03:41:51.528Z,48.90
2018-06-11T03:42:51.403Z,49.80
2018-06-11T03:43:51.312Z,50.10
2018-06-11T03:44:51.322Z,54.40
2018-06-11T03:45:51.136Z,49.80
2018-06-11T03:46:51.083Z,46.90
2018-06-11T03:47:50.958Z,46.40
2018-06-11T03:48:50.873Z,50.20
2018-06-11T03:49:50.783Z,49.60
2018-06-11T03:50:50.694Z,49.10
2018-06-11T03:51:50.728Z,50.40
2018-06-11T03:52:50.557Z,50.40
2018-06-11T03:53:50.429Z,49.90
2018-06-11T03:54:50.342Z,52.80
2018-06-11T03:55:50.253Z,59.60
2018-06-11T03:56:50.193Z,63.20
2018-06-11T03:57:50.075Z,63.10
2018-06-11T03:58:50.082Z,63.10
2018-06-11T03:59:49.895Z,65.60
2018-06-11T04:00:49.826Z,60.90
2018-06-11T04:01:49.754Z,55.60
2018-06-11T04:02:49.649Z,54.80
2018-06-11T04:03:49.540Z,57.90
2018-06-11T04:04:49.454Z,55.10
2018-06-11T04:05:49.461Z,53.00
2018-06-11T04:06:49.308Z,64.30
2018-06-11T04:07:49.186Z,62.60
2018-06-11T04:08:49.103Z,62.00
2018-06-11T04:09:49.013Z,62.70
2018-06-11T04:10:49.023Z,61.10
2018-06-11T04:11:48.869Z,57.90
2018-06-11T04:12:48.838Z,56.20
2018-06-11T04:13:48.658Z,56.70
2018-06-11T04:14:48.573Z,59.60
2018-06-11T04:15:48.483Z,52.50
2018-06-11T04:16:48.431Z,54.40
2018-06-11T04:17:48.306Z,56.20
2018-06-11T04:18:48.218Z,51.90
2018-06-11T04:19:48.131Z,50.90
2018-06-11T04:20:48.040Z,52.00
2018-06-11T04:21:47.990Z,50.80
2018-06-11T04:22:47.865Z,51.40
2018-06-11T04:23:47.775Z,50.20
2018-06-11T04:24:47.688Z,48.60
2018-06-11T04:25:47.600Z,46.50
2018-06-11T04:26:47.633Z,45.40
2018-06-11T04:27:47.424Z,45.90
2018-06-11T04:28:47.335Z,43.60
2018-06-11T04:29:47.246Z,39.20
2018-06-11T04:30:47.162Z,38.20
2018-06-11T04:31:47.103Z,36.90
2018-06-11T04:32:47.076Z,36.30
2018-06-11T04:33:46.897Z,35.00
2018-06-11T04:34:46.828Z,34.10
2018-06-11T04:35:46.720Z,32.60
2018-06-11T04:36:46.663Z,34.10
2018-06-11T04:37:46.547Z,34.90
2018-06-11T04:38:46.460Z,34.50
2018-06-11T04:39:46.369Z,33.80
2018-06-11T04:40:46.282Z,32.80
2018-06-11T04:41:46.223Z,31.60
2018-06-11T04:42:46.105Z,32.00
2018-06-11T04:43:46.016Z,31.70
2018-06-11T04:44:45.930Z,31.50
2018-06-11T04:45:45.841Z,30.60
2018-06-11T04:46:45.782Z,29.10
2018-06-11T04:47:45.666Z,28.00
2018-06-11T04:48:45.579Z,28.20
2018-06-11T04:49:45.492Z,29.90
2018-06-11T04:50:45.404Z,28.70
2018-06-11T04:51:45.348Z,28.90
2018-06-11T04:52:45.227Z,28.80
2018-06-11T04:53:45.142Z,27.20
2018-06-11T04:54:45.053Z,29.00
2018-06-11T04:55:44.965Z,28.80
2018-06-11T04:56:44.908Z,28.10
2018-06-11T04:57:44.790Z,27.60
2018-06-11T04:58:44.707Z,27.40
2018-06-11T04:59:44.618Z,28.70
2018-06-11T05:00:44.534Z,26.60
2018-06-11T05:01:44.472Z,27.00
2018-06-11T05:02:44.356Z,28.30
2018-06-11T05:03:44.265Z,27.50
2018-06-11T05:04:44.180Z,26.80
2018-06-11T05:05:44.091Z,27.20
2018-06-11T05:06:44.036Z,25.90
2018-06-11T05:07:43.920Z,24.90
2018-06-11T05:08:43.829Z,26.50
2018-06-11T05:09:43.742Z,25.50
2018-06-11T05:10:43.660Z,24.40
2018-06-11T05:11:43.571Z,26.00
2018-06-11T05:12:43.514Z,26.10
2018-06-11T05:13:43.395Z,28.40
2018-06-11T05:14:43.311Z,28.20
2018-06-11T05:15:43.220Z,28.40
2018-06-11T05:16:43.140Z,28.10
2018-06-11T05:17:43.083Z,27.20
2018-06-11T05:18:42.973Z,26.60
2018-06-11T05:19:42.874Z,26.40
2018-06-11T05:20:42.787Z,25.80
2018-06-11T05:21:42.703Z,25.90
2018-06-11T05:22:42.651Z,26.10
2018-06-11T05:23:42.528Z,24.70
2018-06-11T05:24:42.441Z,24.50
2018-06-11T05:25:42.357Z,24.60
2018-06-11T05:26:42.276Z,23.90
2018-06-11T05:27:42.213Z,23.40
2018-06-11T05:28:42.100Z,25.00
2018-06-11T05:29:42.008Z,26.70
2018-06-11T05:30:41.921Z,27.60
2018-06-11T05:31:41.836Z,28.10
2018-06-11T05:32:41.781Z,28.70
2018-06-11T05:33:41.668Z,29.10
2018-06-11T05:34:41.591Z,30.50
2018-06-11T05:35:41.491Z,30.10
2018-06-11T05:36:41.405Z,27.20
2018-06-11T05:37:41.350Z,27.40
2018-06-11T05:38:41.238Z,26.50
2018-06-11T05:39:41.145Z,26.20
2018-06-11T05:40:41.060Z,26.10
2018-06-11T05:41:40.973Z,28.00
2018-06-11T05:42:40.921Z,28.00
2018-06-11T05:43:40.803Z,27.80
2018-06-11T05:44:40.735Z,28.00
2018-06-11T05:45:40.629Z,30.40
2018-06-11T05:46:40.544Z,31.80
2018-06-11T05:47:40.490Z,33.60
2018-06-11T05:48:40.371Z,33.40
2018-06-11T05:49:40.286Z,33.00
2018-06-11T05:50:40.200Z,32.80
2018-06-11T05:51:40.116Z,32.20
2018-06-11T05:52:40.064Z,31.10
2018-06-11T05:53:39.940Z,30.80
2018-06-11T05:54:39.855Z,32.60
2018-06-11T05:55:39.771Z,32.30
2018-06-11T05:56:39.683Z,32.10
2018-06-11T05:57:39.637Z,31.90
2018-06-11T05:58:39.515Z,31.00
2018-06-11T05:59:39.426Z,30.20
2018-06-11T06:00:39.341Z,29.20
2018-06-11T06:01:39.257Z,30.30
2018-06-11T06:02:39.201Z,29.90
2018-06-11T06:03:39.084Z,30.60
2018-06-11T06:04:38.999Z,31.40
2018-06-11T06:05:38.913Z,30.60
2018-06-11T06:06:38.830Z,29.40
2018-06-11T06:07:38.773Z,29.50
2018-06-11T06:08:38.660Z,29.20
2018-06-11T06:09:38.571Z,29.10
2018-06-11T06:10:38.491Z,29.00
2018-06-11T06:11:38.402Z,29.10
2018-06-11T06:12:38.348Z,28.50
2018-06-11T06:13:38.234Z,28.90
2018-06-11T06:14:38.151Z,29.20
2018-06-11T06:15:38.063Z,27.50
2018-06-11T06:16:37.978Z,27.30
2018-06-11T06:17:37.924Z,28.70
2018-06-11T06:18:37.898Z,27.60
2018-06-11T06:19:37.756Z,26.50
2018-06-11T06:20:37.637Z,26.40
2018-06-11T06:21:37.551Z,25.90
2018-06-11T06:22:37.499Z,25.80
2018-06-11T06:23:37.380Z,25.50
2018-06-11T06:24:37.299Z,25.60
2018-06-11T06:25:37.309Z,26.70
2018-06-11T06:26:37.147Z,26.80
2018-06-11T06:27:37.070Z,26.20
2018-06-11T06:28:36.960Z,26.10
2018-06-11T06:29:36.874Z,26.60
2018-06-11T06:30:36.790Z,26.30
2018-06-11T06:31:36.706Z,26.50
2018-06-11T06:32:36.746Z,27.50
2018-06-11T06:33:36.533Z,27.10
2018-06-11T06:34:36.596Z,26.50
2018-06-11T06:35:36.367Z,27.00
2018-06-11T06:36:36.283Z,25.80
2018-06-11T06:37:36.233Z,25.20
2018-06-11T06:38:36.116Z,25.50
2018-06-11T06:39:36.187Z,25.80
2018-06-11T06:40:36.011Z,24.70
2018-06-11T06:41:35.861Z,24.10
2018-06-11T06:42:35.782Z,22.80
2018-06-11T06:43:35.727Z,22.70
2018-06-11T06:44:35.611Z,23.20
2018-06-11T06:45:35.529Z,23.10
2018-06-11T06:46:35.543Z,22.20
2018-06-11T06:47:35.363Z,22.50
2018-06-11T06:48:35.312Z,23.30
2018-06-11T06:49:35.197Z,22.40
2018-06-11T06:50:35.117Z,22.20
2018-06-11T06:51:35.033Z,22.20
2018-06-11T06:52:34.955Z,21.70
2018-06-11T06:53:34.995Z,22.10
2018-06-11T06:54:34.787Z,21.80
2018-06-11T06:55:34.710Z,21.80
2018-06-11T06:56:34.638Z,22.50
2018-06-11T06:57:34.541Z,21.90
2018-06-11T06:58:34.488Z,22.30
2018-06-11T06:59:34.374Z,23.10
2018-06-11T07:00:34.384Z,22.70
2018-06-11T07:01:34.213Z,22.90
2018-06-11T07:02:34.129Z,22.30
2018-06-11T07:03:34.075Z,23.60
2018-06-11T07:04:33.966Z,22.50
2018-06-11T07:05:33.884Z,23.40
2018-06-11T07:06:33.799Z,23.50
2018-06-11T07:07:33.726Z,22.80
2018-06-11T07:08:33.670Z,23.10
2018-06-11T07:09:33.554Z,21.90
2018-06-11T07:10:33.473Z,20.50
2018-06-11T07:11:33.393Z,20.30
2018-06-11T07:12:33.310Z,19.90
2018-06-11T07:13:33.257Z,18.90
2018-06-11T07:14:33.146Z,19.80
2018-06-11T07:15:33.067Z,18.60
2018-06-11T07:16:32.987Z,18.60
2018-06-11T07:17:32.903Z,17.90
2018-06-11T07:18:32.856Z,18.90
2018-06-11T07:19:32.742Z,18.90
2018-06-11T07:20:32.663Z,17.90
2018-06-11T07:21:32.584Z,17.80
2018-06-11T07:22:32.503Z,17.30
2018-06-11T07:23:32.453Z,17.20
2018-06-11T07:24:32.344Z,16.70
2018-06-11T07:25:32.260Z,16.00
2018-06-11T07:26:32.181Z,16.70
2018-06-11T07:27:32.100Z,16.10
2018-06-11T07:28:32.055Z,17.70
2018-06-11T07:29:31.954Z,16.50
2018-06-11T07:30:31.864Z,16.90
2018-06-11T07:31:31.789Z,17.30
2018-06-11T07:32:31.746Z,17.10
2018-06-11T07:33:31.663Z,17.00
2018-06-11T07:34:31.551Z,17.50
2018-06-11T07:35:31.469Z,16.40
2018-06-11T07:36:31.389Z,17.10
2018-06-11T07:37:31.368Z,16.00
2018-06-11T07:38:31.267Z,15.90
2018-06-11T07:39:31.159Z,16.30
2018-06-11T07:40:31.079Z,15.90
2018-06-11T07:41:31.010Z,16.70
2018-06-11T07:42:30.922Z,17.20
2018-06-11T07:43:30.876Z,17.20
2018-06-11T07:44:30.767Z,17.20
2018-06-11T07:45:30.693Z,17.00
2018-06-11T07:46:30.607Z,17.00
2018-06-11T07:47:30.530Z,17.10
2018-06-11T07:48:30.483Z,17.90
2018-06-11T07:49:30.374Z,17.90
2018-06-11T07:50:30.293Z,18.40
2018-06-11T07:51:30.213Z,18.90
2018-06-11T07:52:30.135Z,19.50
2018-06-11T07:53:30.094Z,19.30
2018-06-11T07:54:29.980Z,19.40
2018-06-11T07:55:29.898Z,19.90
2018-06-11T07:56:29.819Z,19.80
2018-06-11T07:57:29.739Z,19.50
2018-06-11T07:58:29.698Z,20.20
2018-06-11T07:59:29.583Z,19.80
2018-06-11T08:00:29.503Z,19.80
2018-06-11T08:01:29.426Z,19.50
2018-06-11T08:02:29.345Z,21.50
2018-06-11T08:03:29.293Z,21.50
2018-06-11T08:04:29.179Z,22.50
2018-06-11T08:05:29.101Z,22.00
2018-06-11T08:06:29.020Z,21.40
2018-06-11T08:07:28.990Z,21.50
2018-06-11T08:08:28.890Z,21.60
2018-06-11T08:09:28.777Z,21.60
2018-06-11T08:10:28.700Z,21.80
2018-06-11T08:11:28.615Z,21.60
2018-06-11T08:12:28.537Z,21.90
2018-06-11T08:13:28.485Z,21.90
2018-06-11T08:14:28.406Z,21.20
2018-06-11T08:15:28.297Z,21.50
2018-06-11T08:16:28.216Z,22.40
2018-06-11T08:17:28.130Z,22.30
2018-06-11T08:18:28.053Z,22.30
2018-06-11T08:19:28.013Z,22.00
2018-06-11T08:20:27.887Z,22.60
2018-06-11T08:21:27.806Z,22.40
2018-06-11T08:22:27.724Z,22.20
2018-06-11T08:23:27.745Z,22.50
2018-06-11T08:24:27.591Z,22.80
2018-06-11T08:25:27.479Z,22.90
2018-06-11T08:26:27.397Z,23.00
2018-06-11T08:27:27.360Z,23.30
2018-06-11T08:28:27.236Z,23.00
2018-06-11T08:29:27.185Z,22.70
2018-06-11T08:30:27.180Z,23.30
2018-06-11T08:31:26.991Z,23.50
2018-06-11T08:32:26.909Z,24.20
2018-06-11T08:33:26.833Z,24.40
2018-06-11T08:34:26.776Z,23.90
2018-06-11T08:35:26.668Z,23.50
2018-06-11T08:36:26.584Z,22.20
2018-06-11T08:37:26.601Z,23.30
2018-06-11T08:38:26.426Z,24.90
2018-06-11T08:39:26.374Z,25.20
2018-06-11T08:40:26.262Z,26.70
2018-06-11T08:41:26.179Z,26.90
2018-06-11T08:42:26.100Z,27.30
2018-06-11T08:43:26.021Z,27.90
2018-06-11T08:44:26.077Z,28.40
2018-06-11T08:45:25.855Z,29.20
2018-06-11T08:46:25.774Z,28.90
2018-06-11T08:47:25.693Z,29.00
2018-06-11T08:48:25.615Z,31.40
2018-06-11T08:49:25.565Z,30.10
2018-06-11T08:50:25.451Z,29.80
2018-06-11T08:51:25.460Z,28.90
2018-06-11T08:52:25.292Z,29.30
2018-06-11T08:53:25.225Z,29.40
2018-06-11T08:54:25.156Z,31.00
2018-06-11T08:55:25.043Z,30.10
2018-06-11T08:56:24.964Z,30.40
2018-06-11T08:57:24.882Z,30.00
2018-06-11T08:58:24.899Z,30.20
2018-06-11T08:59:24.755Z,31.30
2018-06-11T09:00:24.640Z,31.60
2018-06-11T09:01:24.562Z,31.00
2018-06-11T09:02:24.478Z,30.50
2018-06-11T09:03:24.398Z,29.90
2018-06-11T09:04:24.348Z,28.50
2018-06-11T09:05:24.322Z,28.50
2018-06-11T09:06:24.155Z,29.50
2018-06-11T09:07:24.074Z,27.90
2018-06-11T09:08:23.994Z,27.00
2018-06-11T09:09:23.944Z,25.40
2018-06-11T09:10:23.838Z,24.50
2018-06-11T09:11:23.751Z,25.80
2018-06-11T09:12:23.762Z,26.10
2018-06-11T09:13:23.595Z,28.60
2018-06-11T09:14:23.540Z,27.70
2018-06-11T09:15:23.429Z,27.30
2018-06-11T09:16:23.347Z,29.20
2018-06-11T09:17:23.272Z,30.10
2018-06-11T09:18:23.291Z,28.90
2018-06-11T09:19:23.237Z,29.80
2018-06-11T09:20:23.032Z,29.30
2018-06-11T09:21:22.956Z,29.00
2018-06-11T09:22:22.871Z,27.80
2018-06-11T09:23:22.793Z,27.50
2018-06-11T09:24:22.745Z,27.50
2018-06-11T09:25:22.633Z,28.00
2018-06-11T09:26:22.646Z,29.00
2018-06-11T09:27:22.473Z,28.90
2018-06-11T09:28:22.394Z,28.70
2018-06-11T09:29:22.346Z,28.20
2018-06-11T09:30:22.235Z,28.60
2018-06-11T09:31:22.154Z,28.40
2018-06-11T09:32:22.077Z,27.90
2018-06-11T09:33:21.998Z,25.60
2018-06-11T09:34:21.953Z,25.10
2018-06-11T09:35:21.839Z,24.80
2018-06-11T09:36:21.759Z,25.50
2018-06-11T09:37:21.683Z,24.90
2018-06-11T09:38:21.603Z,24.90
2018-06-11T09:39:21.556Z,24.40
2018-06-11T09:40:21.447Z,24.80
2018-06-11T09:41:21.367Z,24.60
2018-06-11T09:42:21.285Z,24.40
2018-06-11T09:43:21.206Z,24.00
2018-06-11T09:44:21.129Z,25.80
2018-06-11T09:45:21.080Z,25.10
2018-06-11T09:46:21.064Z,24.80
2018-06-11T09:47:20.890Z,25.60
2018-06-11T09:48:20.814Z,26.00
2018-06-11T09:49:20.737Z,25.30
2018-06-11T09:50:20.689Z,25.20
2018-06-11T09:51:20.576Z,23.30
2018-06-11T09:52:20.500Z,22.80
2018-06-11T09:53:20.420Z,23.30
2018-06-11T09:54:20.342Z,21.70
2018-06-11T09:55:20.295Z,22.20
2018-06-11T09:56:20.185Z,22.60
2018-06-11T09:57:20.107Z,21.50
2018-06-11T09:58:20.031Z,21.10
2018-06-11T09:59:19.951Z,22.00
2018-06-11T10:00:19.904Z,21.00
2018-06-11T10:01:19.796Z,21.30
2018-06-11T10:02:19.719Z,21.10
2018-06-11T10:03:19.645Z,20.00
2018-06-11T10:04:19.559Z,20.10
2018-06-11T10:05:19.514Z,20.60
2018-06-11T10:06:19.402Z,21.10
2018-06-11T10:07:19.324Z,22.00
2018-06-11T10:08:19.246Z,22.50
2018-06-11T10:09:19.168Z,23.80
2018-06-11T10:10:19.120Z,25.70
2018-06-11T10:11:19.016Z,24.00
2018-06-11T10:12:18.993Z,23.00
2018-06-11T10:13:18.857Z,21.90
2018-06-11T10:14:18.774Z,21.40
2018-06-11T10:15:18.728Z,20.70
2018-06-11T10:16:18.620Z,20.90
2018-06-11T10:17:18.547Z,19.20
2018-06-11T10:18:18.461Z,20.40
2018-06-11T10:19:18.416Z,19.50
2018-06-11T10:20:18.334Z,20.40
2018-06-11T10:21:18.225Z,20.10
2018-06-11T10:22:18.149Z,19.40
2018-06-11T10:23:18.067Z,20.00
2018-06-11T10:24:17.990Z,20.40
2018-06-11T10:25:17.945Z,20.80
2018-06-11T10:26:17.837Z,21.10
2018-06-11T10:27:17.758Z,20.70
2018-06-11T10:28:17.682Z,19.50
2018-06-11T10:29:17.601Z,19.70
2018-06-11T10:30:17.556Z,19.40
2018-06-11T10:31:17.447Z,19.30
2018-06-11T10:32:17.370Z,18.90
2018-06-11T10:33:17.290Z,19.40
2018-06-11T10:34:17.211Z,18.90
2018-06-11T10:35:17.167Z,20.70
2018-06-11T10:36:17.058Z,23.00
2018-06-11T10:37:16.987Z,23.50
2018-06-11T10:38:16.900Z,23.70
2018-06-11T10:39:16.824Z,22.70
2018-06-11T10:40:16.782Z,21.90
2018-06-11T10:41:16.669Z,22.50
2018-06-11T10:42:16.590Z,22.50
2018-06-11T10:43:16.514Z,23.60
2018-06-11T10:44:16.435Z,26.10
2018-06-11T10:45:16.393Z,26.90
2018-06-11T10:46:16.281Z,27.70
2018-06-11T10:47:16.199Z,28.10
2018-06-11T10:48:16.122Z,29.10
2018-06-11T10:49:16.045Z,27.70
2018-06-11T10:50:15.997Z,27.20
2018-06-11T10:51:15.886Z,25.60
2018-06-11T10:52:15.808Z,24.70
2018-06-11T10:53:15.730Z,24.80
2018-06-11T10:54:15.646Z,25.60
2018-06-11T10:55:15.601Z,27.00
2018-06-11T10:56:15.492Z,26.70
2018-06-11T10:57:15.411Z,28.90
2018-06-11T10:58:15.339Z,30.60
2018-06-11T10:59:15.253Z,31.80
2018-06-11T11:00:15.202Z,30.80
2018-06-11T11:01:15.096Z,32.60
2018-06-11T11:02:15.012Z,33.00
2018-06-11T11:03:14.930Z,33.70
2018-06-11T11:04:14.854Z,33.30
2018-06-11T11:05:14.805Z,35.20
2018-06-11T11:06:14.694Z,35.00
2018-06-11T11:07:14.613Z,34.50
2018-06-11T11:08:14.533Z,31.40
2018-06-11T11:09:14.452Z,32.90
2018-06-11T11:10:14.490Z,32.80
2018-06-11T11:11:14.288Z,33.50
2018-06-11T11:12:14.205Z,33.10
2018-06-11T11:13:14.149Z,32.90
2018-06-11T11:14:14.070Z,33.80
2018-06-11T11:15:13.967Z,33.20
2018-06-11T11:16:13.916Z,32.20
2018-06-11T11:17:13.800Z,32.80
2018-06-11T11:18:13.725Z,33.40
2018-06-11T11:19:13.640Z,33.10
2018-06-11T11:20:13.559Z,32.40
2018-06-11T11:21:13.510Z,33.50
2018-06-11T11:22:13.396Z,32.60
2018-06-11T11:23:13.313Z,35.30
2018-06-11T11:24:13.232Z,33.80
2018-06-11T11:25:13.156Z,33.90
2018-06-11T11:26:13.105Z,33.80
2018-06-11T11:27:12.985Z,34.00
2018-06-11T11:28:12.916Z,35.00
2018-06-11T11:29:12.826Z,33.80
2018-06-11T11:30:12.750Z,33.80
2018-06-11T11:31:12.691Z,32.90
2018-06-11T11:32:12.580Z,34.50
2018-06-11T11:33:12.497Z,32.50
2018-06-11T11:34:12.416Z,32.90
2018-06-11T11:35:12.336Z,33.30
2018-06-11T11:36:12.287Z,33.50
2018-06-11T11:37:12.166Z,32.80
2018-06-11T11:38:12.087Z,32.50
2018-06-11T11:39:12.021Z,31.20
2018-06-11T11:40:11.921Z,31.70
2018-06-11T11:41:11.872Z,31.50
2018-06-11T11:42:11.760Z,28.80
2018-06-11T11:43:11.687Z,27.90
2018-06-11T11:44:11.596Z,27.00
2018-06-11T11:45:11.514Z,27.50
2018-06-11T11:46:11.467Z,26.00
2018-06-11T11:47:11.348Z,24.40
2018-06-11T11:48:11.268Z,23.70
2018-06-11T11:49:11.183Z,23.30
2018-06-11T11:50:11.102Z,22.40
2018-06-11T11:51:11.092Z,21.90
2018-06-11T11:52:10.946Z,22.90
2018-06-11T11:53:11.155Z,21.90
2018-06-11T11:54:10.776Z,21.80
2018-06-11T11:55:10.695Z,21.50
2018-06-11T11:56:10.647Z,22.30
2018-06-11T11:57:10.531Z,21.30
2018-06-11T11:58:10.448Z,22.20
2018-06-11T11:59:10.367Z,20.70
2018-06-11T12:00:10.373Z,21.50
2018-06-11T12:01:10.236Z,20.90
2018-06-11T12:02:10.123Z,22.00
2018-06-11T12:03:10.040Z,22.10
2018-06-11T12:04:09.955Z,21.60
2018-06-11T12:05:09.875Z,21.70
2018-06-11T12:06:09.824Z,22.30
2018-06-11T12:07:09.798Z,21.90
2018-06-11T12:08:09.626Z,22.60
2018-06-11T12:09:09.545Z,21.00
2018-06-11T12:10:09.461Z,22.40
2018-06-11T12:11:09.408Z,22.10
2018-06-11T12:12:09.295Z,21.90
2018-06-11T12:13:09.219Z,22.40
2018-06-11T12:14:09.231Z,22.10
2018-06-11T12:15:09.047Z,21.20
2018-06-11T12:16:08.997Z,20.80
2018-06-11T12:17:08.894Z,21.50
2018-06-11T12:18:08.801Z,22.00
2018-06-11T12:19:08.781Z,21.90
2018-06-11T12:20:08.633Z,22.20
2018-06-11T12:21:08.583Z,21.60
2018-06-11T12:22:08.467Z,22.40
2018-06-11T12:23:08.382Z,22.10
2018-06-11T12:24:08.300Z,21.20
2018-06-11T12:25:08.226Z,21.30
2018-06-11T12:26:08.164Z,22.10
2018-06-11T12:27:08.050Z,21.80
2018-06-11T12:28:08.005Z,22.50
2018-06-11T12:29:07.884Z,21.40
2018-06-11T12:30:07.801Z,21.20
2018-06-11T12:31:07.748Z,20.50
2018-06-11T12:32:07.636Z,21.10
2018-06-11T12:33:07.551Z,21.00
2018-06-11T12:34:07.474Z,21.80
2018-06-11T12:35:07.385Z,21.80
2018-06-11T12:36:07.331Z,22.20
2018-06-11T12:37:07.223Z,22.30
2018-06-11T12:38:07.141Z,23.00
2018-06-11T12:39:07.054Z,22.40
2018-06-11T12:40:06.971Z,22.80
2018-06-11T12:41:06.925Z,22.40
2018-06-11T12:42:06.808Z,22.10
2018-06-11T12:43:06.721Z,21.90
2018-06-11T12:44:06.638Z,21.70
2018-06-11T12:45:06.559Z,21.40
2018-06-11T12:46:06.507Z,21.50
2018-06-11T12:47:06.390Z,20.60
2018-06-11T12:48:06.305Z,20.90
2018-06-11T12:49:06.224Z,21.80
2018-06-11T12:50:06.141Z,21.30